sensor_id;sensor_type;location;lat;lon;timestamp;temperature;humidity
55795;DHT22;41716;51.910;4.430;2023-02-28T00:03:38;5.20;99.90
55795;DHT22;41716;51.910;4.430;2023-02-28T00:08:40;5.10;99.90
55795;DHT22;41716;51.910;4.430;2023-02-28T00:13:43;4.80;99.90
55795;DHT22;41716;51.910;4.430;2023-02-28T00:18:48;4.90;99.90
55795;DHT22;41716;51.910;4.430;2023-02-28T00:23:50;5.00;99.90
55795;DHT22;41716;51.910;4.430;2023-02-28T00:28:52;4.90;99.90
55795;DHT22;41716;51.910;4.430;2023-02-28T00:33:55;5.10;99.90
55795;DHT22;41716;51.910;4.430;2023-02-28T00:38:56;5.10;99.90
55795;DHT22;41716;51.910;4.430;2023-02-28T00:43:58;4.90;99.90
55795;DHT22;41716;51.910;4.430;2023-02-28T00:49:01;5.00;99.90
55795;DHT22;41716;51.910;4.430;2023-02-28T00:54:03;5.10;99.90
55795;DHT22;41716;51.910;4.430;2023-02-28T00:59:04;5.10;99.90
55795;DHT22;41716;51.910;4.430;2023-02-28T01:04:07;5.00;99.90
55795;DHT22;41716;51.910;4.430;2023-02-28T01:09:09;4.90;99.90
55795;DHT22;41716;51.910;4.430;2023-02-28T01:14:12;5.00;99.90
55795;DHT22;41716;51.910;4.430;2023-02-28T01:19:16;4.90;99.90
55795;DHT22;41716;51.910;4.430;2023-02-28T01:24:17;4.90;99.90
55795;DHT22;41716;51.910;4.430;2023-02-28T01:29:19;5.00;99.90
55795;DHT22;41716;51.910;4.430;2023-02-28T01:34:22;5.20;99.90
55795;DHT22;41716;51.910;4.430;2023-02-28T01:39:24;5.10;99.90
55795;DHT22;41716;51.910;4.430;2023-02-28T01:49:47;5.20;99.90
55795;DHT22;41716;51.910;4.430;2023-02-28T01:54:50;5.00;99.90
55795;DHT22;41716;51.910;4.430;2023-02-28T01:59:54;5.00;99.90
55795;DHT22;41716;51.910;4.430;2023-02-28T02:05:00;5.10;99.90
55795;DHT22;41716;51.910;4.430;2023-02-28T02:10:04;5.10;99.90
55795;DHT22;41716;51.910;4.430;2023-02-28T02:15:07;5.10;99.90
55795;DHT22;41716;51.910;4.430;2023-02-28T02:25:34;5.30;99.90
55795;DHT22;41716;51.910;4.430;2023-02-28T02:30:43;5.30;99.90
55795;DHT22;41716;51.910;4.430;2023-02-28T02:35:50;5.20;99.90
55795;DHT22;41716;51.910;4.430;2023-02-28T02:40:57;5.30;99.90
55795;DHT22;41716;51.910;4.430;2023-02-28T02:46:01;5.00;99.90
55795;DHT22;41716;51.910;4.430;2023-02-28T02:51:06;5.30;99.90
55795;DHT22;41716;51.910;4.430;2023-02-28T02:56:12;5.20;99.90
55795;DHT22;41716;51.910;4.430;2023-02-28T03:01:15;5.40;99.90
55795;DHT22;41716;51.910;4.430;2023-02-28T03:06:19;5.20;99.90
55795;DHT22;41716;51.910;4.430;2023-02-28T03:11:20;5.40;99.90
55795;DHT22;41716;51.910;4.430;2023-02-28T03:16:31;5.40;99.90
55795;DHT22;41716;51.910;4.430;2023-02-28T03:21:35;5.30;99.90
55795;DHT22;41716;51.910;4.430;2023-02-28T03:26:40;5.20;99.90
55795;DHT22;41716;51.910;4.430;2023-02-28T03:31:44;5.40;99.90
55795;DHT22;41716;51.910;4.430;2023-02-28T03:36:48;5.40;99.90
55795;DHT22;41716;51.910;4.430;2023-02-28T03:41:54;5.20;99.90
55795;DHT22;41716;51.910;4.430;2023-02-28T03:46:58;5.30;99.90
55795;DHT22;41716;51.910;4.430;2023-02-28T03:52:04;5.30;99.90
55795;DHT22;41716;51.910;4.430;2023-02-28T03:57:09;5.20;99.90
55795;DHT22;41716;51.910;4.430;2023-02-28T04:02:12;5.30;99.90
55795;DHT22;41716;51.910;4.430;2023-02-28T04:07:15;5.50;99.90
55795;DHT22;41716;51.910;4.430;2023-02-28T04:12:17;5.40;99.90
55795;DHT22;41716;51.910;4.430;2023-02-28T04:17:18;5.40;99.90
55795;DHT22;41716;51.910;4.430;2023-02-28T04:22:21;5.20;99.90
55795;DHT22;41716;51.910;4.430;2023-02-28T04:27:26;5.20;99.90
55795;DHT22;41716;51.910;4.430;2023-02-28T04:32:27;5.10;99.90
55795;DHT22;41716;51.910;4.430;2023-02-28T04:37:30;5.10;99.90
55795;DHT22;41716;51.910;4.430;2023-02-28T04:42:35;5.10;99.90
55795;DHT22;41716;51.910;4.430;2023-02-28T04:47:36;5.10;99.90
55795;DHT22;41716;51.910;4.430;2023-02-28T04:52:39;5.20;99.90
55795;DHT22;41716;51.910;4.430;2023-02-28T04:57:40;5.30;99.90
55795;DHT22;41716;51.910;4.430;2023-02-28T05:02:42;5.30;99.90
55795;DHT22;41716;51.910;4.430;2023-02-28T05:07:45;5.40;99.90
55795;DHT22;41716;51.910;4.430;2023-02-28T05:12:47;5.40;99.90
55795;DHT22;41716;51.910;4.430;2023-02-28T05:17:49;5.70;99.90
55795;DHT22;41716;51.910;4.430;2023-02-28T05:22:51;5.40;99.90
55795;DHT22;41716;51.910;4.430;2023-02-28T05:27:53;5.40;99.90
55795;DHT22;41716;51.910;4.430;2023-02-28T05:32:55;5.20;99.90
55795;DHT22;41716;51.910;4.430;2023-02-28T05:37:57;5.20;99.90
55795;DHT22;41716;51.910;4.430;2023-02-28T05:42:59;5.00;99.90
55795;DHT22;41716;51.910;4.430;2023-02-28T05:48:01;5.20;99.90
55795;DHT22;41716;51.910;4.430;2023-02-28T05:53:04;5.10;99.90
55795;DHT22;41716;51.910;4.430;2023-02-28T05:58:05;5.10;99.90
55795;DHT22;41716;51.910;4.430;2023-02-28T06:03:07;5.00;99.90
55795;DHT22;41716;51.910;4.430;2023-02-28T06:08:09;5.00;99.90
55795;DHT22;41716;51.910;4.430;2023-02-28T06:13:11;4.80;99.90
55795;DHT22;41716;51.910;4.430;2023-02-28T06:18:13;4.80;99.90
55795;DHT22;41716;51.910;4.430;2023-02-28T06:23:15;4.70;99.90
55795;DHT22;41716;51.910;4.430;2023-02-28T06:28:17;4.60;99.90
55795;DHT22;41716;51.910;4.430;2023-02-28T06:33:18;4.40;99.90
55795;DHT22;41716;51.910;4.430;2023-02-28T06:38:21;4.20;99.90
55795;DHT22;41716;51.910;4.430;2023-02-28T06:43:23;4.10;99.90
55795;DHT22;41716;51.910;4.430;2023-02-28T06:48:25;4.20;99.90
55795;DHT22;41716;51.910;4.430;2023-02-28T06:53:28;4.20;99.90
55795;DHT22;41716;51.910;4.430;2023-02-28T06:58:30;4.20;99.90
55795;DHT22;41716;51.910;4.430;2023-02-28T07:03:31;4.30;99.90
55795;DHT22;41716;51.910;4.430;2023-02-28T07:08:35;4.20;99.90
55795;DHT22;41716;51.910;4.430;2023-02-28T07:13:37;4.30;99.90
55795;DHT22;41716;51.910;4.430;2023-02-28T07:18:38;4.40;99.90
55795;DHT22;41716;51.910;4.430;2023-02-28T07:23:41;4.10;99.90
55795;DHT22;41716;51.910;4.430;2023-02-28T07:28:43;3.90;99.90
55795;DHT22;41716;51.910;4.430;2023-02-28T07:33:45;3.70;99.90
55795;DHT22;41716;51.910;4.430;2023-02-28T07:38:48;3.70;99.90
55795;DHT22;41716;51.910;4.430;2023-02-28T07:43:52;3.70;99.90
55795;DHT22;41716;51.910;4.430;2023-02-28T07:48:54;3.70;99.90
55795;DHT22;41716;51.910;4.430;2023-02-28T07:54:00;3.70;99.90
55795;DHT22;41716;51.910;4.430;2023-02-28T07:59:02;3.10;99.90
55795;DHT22;41716;51.910;4.430;2023-02-28T08:04:04;3.30;99.90
55795;DHT22;41716;51.910;4.430;2023-02-28T08:09:07;3.80;99.90
55795;DHT22;41716;51.910;4.430;2023-02-28T08:14:08;3.70;99.90
55795;DHT22;41716;51.910;4.430;2023-02-28T08:19:10;3.10;99.90
55795;DHT22;41716;51.910;4.430;2023-02-28T08:24:12;3.20;99.90
55795;DHT22;41716;51.910;4.430;2023-02-28T08:29:14;2.50;99.90
55795;DHT22;41716;51.910;4.430;2023-02-28T08:34:15;3.10;99.90
55795;DHT22;41716;51.910;4.430;2023-02-28T08:39:18;2.90;99.90
55795;DHT22;41716;51.910;4.430;2023-02-28T08:44:20;4.00;99.90
55795;DHT22;41716;51.910;4.430;2023-02-28T08:49:21;2.90;99.90
55795;DHT22;41716;51.910;4.430;2023-02-28T08:54:24;3.80;99.90
55795;DHT22;41716;51.910;4.430;2023-02-28T08:59:26;3.00;99.90
55795;DHT22;41716;51.910;4.430;2023-02-28T09:04:27;3.30;99.90
55795;DHT22;41716;51.910;4.430;2023-02-28T09:09:32;3.50;99.90
55795;DHT22;41716;51.910;4.430;2023-02-28T09:14:33;4.00;99.90
55795;DHT22;41716;51.910;4.430;2023-02-28T09:19:35;3.70;99.90
55795;DHT22;41716;51.910;4.430;2023-02-28T09:24:38;4.50;99.90
55795;DHT22;41716;51.910;4.430;2023-02-28T09:29:40;4.40;99.90
55795;DHT22;41716;51.910;4.430;2023-02-28T09:34:41;4.20;99.90
55795;DHT22;41716;51.910;4.430;2023-02-28T09:39:44;4.30;99.90
55795;DHT22;41716;51.910;4.430;2023-02-28T09:44:46;4.50;99.90
55795;DHT22;41716;51.910;4.430;2023-02-28T09:49:48;4.20;99.90
55795;DHT22;41716;51.910;4.430;2023-02-28T09:54:51;4.20;99.90
55795;DHT22;41716;51.910;4.430;2023-02-28T10:00:03;4.60;99.90
55795;DHT22;41716;51.910;4.430;2023-02-28T10:05:11;4.50;99.90
55795;DHT22;41716;51.910;4.430;2023-02-28T10:10:17;4.60;99.90
55795;DHT22;41716;51.910;4.430;2023-02-28T10:15:19;4.40;99.90
55795;DHT22;41716;51.910;4.430;2023-02-28T10:20:22;4.20;99.90
55795;DHT22;41716;51.910;4.430;2023-02-28T10:25:31;4.30;99.90
55795;DHT22;41716;51.910;4.430;2023-02-28T10:30:32;4.40;99.90
55795;DHT22;41716;51.910;4.430;2023-02-28T10:35:34;4.60;99.90
55795;DHT22;41716;51.910;4.430;2023-02-28T10:40:37;4.50;99.90
55795;DHT22;41716;51.910;4.430;2023-02-28T10:45:38;4.80;99.90
55795;DHT22;41716;51.910;4.430;2023-02-28T10:50:42;4.70;99.90
55795;DHT22;41716;51.910;4.430;2023-02-28T10:55:45;5.20;99.90
55795;DHT22;41716;51.910;4.430;2023-02-28T11:00:57;5.80;99.90
55795;DHT22;41716;51.910;4.430;2023-02-28T11:06:04;6.50;99.90
55795;DHT22;41716;51.910;4.430;2023-02-28T11:11:07;7.60;99.90
55795;DHT22;41716;51.910;4.430;2023-02-28T11:16:09;7.40;99.90
55795;DHT22;41716;51.910;4.430;2023-02-28T11:21:15;9.30;99.90
55795;DHT22;41716;51.910;4.430;2023-02-28T11:31:36;11.70;99.90
55795;DHT22;41716;51.910;4.430;2023-02-28T11:36:38;11.40;99.90
55795;DHT22;41716;51.910;4.430;2023-02-28T11:41:50;10.80;99.90
55795;DHT22;41716;51.910;4.430;2023-02-28T11:46:58;10.20;99.90
55795;DHT22;41716;51.910;4.430;2023-02-28T11:52:01;11.80;99.90
55795;DHT22;41716;51.910;4.430;2023-02-28T11:57:13;11.50;99.90
55795;DHT22;41716;51.910;4.430;2023-02-28T12:02:22;11.90;99.90
55795;DHT22;41716;51.910;4.430;2023-02-28T12:07:26;11.40;99.90
55795;DHT22;41716;51.910;4.430;2023-02-28T12:12:34;11.80;99.90
55795;DHT22;41716;51.910;4.430;2023-02-28T12:17:43;13.50;99.90
55795;DHT22;41716;51.910;4.430;2023-02-28T12:22:49;13.60;99.90
55795;DHT22;41716;51.910;4.430;2023-02-28T12:27:54;13.40;99.90
55795;DHT22;41716;51.910;4.430;2023-02-28T12:32:58;14.40;99.90
55795;DHT22;41716;51.910;4.430;2023-02-28T12:38:04;14.80;99.90
55795;DHT22;41716;51.910;4.430;2023-02-28T12:43:07;15.00;98.80
55795;DHT22;41716;51.910;4.430;2023-02-28T12:48:13;15.30;98.00
55795;DHT22;41716;51.910;4.430;2023-02-28T12:53:18;14.30;96.90
55795;DHT22;41716;51.910;4.430;2023-02-28T12:58:27;15.30;96.40
55795;DHT22;41716;51.910;4.430;2023-02-28T13:03:38;15.40;95.50
55795;DHT22;41716;51.910;4.430;2023-02-28T13:08:57;15.20;95.30
55795;DHT22;41716;51.910;4.430;2023-02-28T13:14:01;15.30;94.50
55795;DHT22;41716;51.910;4.430;2023-02-28T13:19:10;14.20;94.30
55795;DHT22;41716;51.910;4.430;2023-02-28T13:24:13;15.20;94.00
55795;DHT22;41716;51.910;4.430;2023-02-28T13:29:35;15.70;93.80
55795;DHT22;41716;51.910;4.430;2023-02-28T13:34:38;15.40;93.10
55795;DHT22;41716;51.910;4.430;2023-02-28T13:39:47;15.10;91.80
55795;DHT22;41716;51.910;4.430;2023-02-28T13:50:18;15.10;91.90
55795;DHT22;41716;51.910;4.430;2023-02-28T13:55:24;15.60;91.50
55795;DHT22;41716;51.910;4.430;2023-02-28T14:00:30;15.10;91.10
55795;DHT22;41716;51.910;4.430;2023-02-28T14:05:34;15.40;91.40
55795;DHT22;41716;51.910;4.430;2023-02-28T14:10:36;15.00;91.60
55795;DHT22;41716;51.910;4.430;2023-02-28T14:15:41;15.60;91.10
55795;DHT22;41716;51.910;4.430;2023-02-28T14:20:47;14.50;91.00
55795;DHT22;41716;51.910;4.430;2023-02-28T14:25:52;15.50;91.50
55795;DHT22;41716;51.910;4.430;2023-02-28T14:31:01;14.80;89.60
55795;DHT22;41716;51.910;4.430;2023-02-28T14:36:12;15.10;90.70
55795;DHT22;41716;51.910;4.430;2023-02-28T14:41:16;14.90;90.60
55795;DHT22;41716;51.910;4.430;2023-02-28T14:46:20;14.90;90.50
55795;DHT22;41716;51.910;4.430;2023-02-28T14:51:23;13.30;91.10
55795;DHT22;41716;51.910;4.430;2023-02-28T14:56:26;13.70;90.80
55795;DHT22;41716;51.910;4.430;2023-02-28T15:01:30;14.50;91.00
55795;DHT22;41716;51.910;4.430;2023-02-28T15:06:33;14.50;90.40
55795;DHT22;41716;51.910;4.430;2023-02-28T15:11:35;14.30;90.20
55795;DHT22;41716;51.910;4.430;2023-02-28T15:16:37;13.70;90.40
55795;DHT22;41716;51.910;4.430;2023-02-28T15:21:41;13.50;90.40
55795;DHT22;41716;51.910;4.430;2023-02-28T15:26:45;13.60;90.70
55795;DHT22;41716;51.910;4.430;2023-02-28T15:31:48;13.70;90.40
55795;DHT22;41716;51.910;4.430;2023-02-28T15:36:52;13.40;90.60
55795;DHT22;41716;51.910;4.430;2023-02-28T15:47:14;13.40;90.80
55795;DHT22;41716;51.910;4.430;2023-02-28T15:52:19;13.50;90.70
55795;DHT22;41716;51.910;4.430;2023-02-28T15:57:22;12.20;91.10
55795;DHT22;41716;51.910;4.430;2023-02-28T16:02:30;12.70;90.90
55795;DHT22;41716;51.910;4.430;2023-02-28T16:07:33;12.90;91.10
55795;DHT22;41716;51.910;4.430;2023-02-28T16:12:36;12.60;90.70
55795;DHT22;41716;51.910;4.430;2023-02-28T16:17:38;12.30;90.90
55795;DHT22;41716;51.910;4.430;2023-02-28T16:22:42;12.20;90.90
55795;DHT22;41716;51.910;4.430;2023-02-28T16:27:43;12.10;90.60
55795;DHT22;41716;51.910;4.430;2023-02-28T16:32:46;11.40;90.60
55795;DHT22;41716;51.910;4.430;2023-02-28T16:37:49;11.60;90.80
55795;DHT22;41716;51.910;4.430;2023-02-28T16:42:52;11.20;90.70
55795;DHT22;41716;51.910;4.430;2023-02-28T16:47:54;11.00;91.10
55795;DHT22;41716;51.910;4.430;2023-02-28T16:52:57;10.90;93.20
55795;DHT22;41716;51.910;4.430;2023-02-28T16:57:59;10.70;94.90
55795;DHT22;41716;51.910;4.430;2023-02-28T17:03:01;10.70;96.00
55795;DHT22;41716;51.910;4.430;2023-02-28T17:08:04;10.60;96.80
55795;DHT22;41716;51.910;4.430;2023-02-28T17:13:06;10.40;97.60
55795;DHT22;41716;51.910;4.430;2023-02-28T17:18:09;10.50;97.60
55795;DHT22;41716;51.910;4.430;2023-02-28T17:23:15;9.90;97.90
55795;DHT22;41716;51.910;4.430;2023-02-28T17:28:17;10.00;99.00
55795;DHT22;41716;51.910;4.430;2023-02-28T17:33:18;9.60;99.90
55795;DHT22;41716;51.910;4.430;2023-02-28T17:38:21;9.40;99.90
55795;DHT22;41716;51.910;4.430;2023-02-28T17:43:23;9.30;99.90
55795;DHT22;41716;51.910;4.430;2023-02-28T17:48:26;9.40;99.90
55795;DHT22;41716;51.910;4.430;2023-02-28T17:53:29;9.20;99.90
55795;DHT22;41716;51.910;4.430;2023-02-28T17:58:30;9.30;99.90
55795;DHT22;41716;51.910;4.430;2023-02-28T18:03:32;9.20;99.90
55795;DHT22;41716;51.910;4.430;2023-02-28T18:08:35;8.80;99.90
55795;DHT22;41716;51.910;4.430;2023-02-28T18:13:36;8.80;99.90
55795;DHT22;41716;51.910;4.430;2023-02-28T18:18:38;8.70;99.90
55795;DHT22;41716;51.910;4.430;2023-02-28T18:23:41;8.60;99.90
55795;DHT22;41716;51.910;4.430;2023-02-28T18:28:47;8.40;99.90
55795;DHT22;41716;51.910;4.430;2023-02-28T18:33:49;8.30;99.90
55795;DHT22;41716;51.910;4.430;2023-02-28T18:38:52;8.40;99.90
55795;DHT22;41716;51.910;4.430;2023-02-28T18:43:54;8.20;99.90
55795;DHT22;41716;51.910;4.430;2023-02-28T18:48:56;8.00;99.90
55795;DHT22;41716;51.910;4.430;2023-02-28T18:53:59;7.80;99.90
55795;DHT22;41716;51.910;4.430;2023-02-28T18:59:01;7.90;99.90
55795;DHT22;41716;51.910;4.430;2023-02-28T19:04:03;7.60;99.90
55795;DHT22;41716;51.910;4.430;2023-02-28T19:09:06;7.70;99.90
55795;DHT22;41716;51.910;4.430;2023-02-28T19:14:08;7.50;99.90
55795;DHT22;41716;51.910;4.430;2023-02-28T19:19:10;7.40;99.90
55795;DHT22;41716;51.910;4.430;2023-02-28T19:24:12;7.60;99.90
55795;DHT22;41716;51.910;4.430;2023-02-28T19:29:14;7.10;99.90
55795;DHT22;41716;51.910;4.430;2023-02-28T19:34:15;7.10;99.90
55795;DHT22;41716;51.910;4.430;2023-02-28T19:39:18;7.10;99.90
55795;DHT22;41716;51.910;4.430;2023-02-28T19:44:20;6.90;99.90
55795;DHT22;41716;51.910;4.430;2023-02-28T19:49:21;6.90;99.90
55795;DHT22;41716;51.910;4.430;2023-02-28T19:54:24;6.70;99.90
55795;DHT22;41716;51.910;4.430;2023-02-28T19:59:26;6.70;99.90
55795;DHT22;41716;51.910;4.430;2023-02-28T20:04:28;6.80;99.90
55795;DHT22;41716;51.910;4.430;2023-02-28T20:09:31;6.90;99.90
55795;DHT22;41716;51.910;4.430;2023-02-28T20:14:33;6.60;99.90
